sensor_id;sensor_type;location;lat;lon;timestamp;pressure;altitude;pressure_sealevel;temperature;humidity
12879;BME280;20617;49.476;10.986;2023-03-21T00:01:22;98442.81;;;11.05;100.00
12879;BME280;20617;49.476;10.986;2023-03-21T00:03:27;98441.22;;;11.01;100.00
12879;BME280;20617;49.476;10.986;2023-03-21T00:05:34;98441.59;;;10.92;100.00
12879;BME280;20617;49.476;10.986;2023-03-21T00:07:43;98443.50;;;10.88;100.00
12879;BME280;20617;49.476;10.986;2023-03-21T00:09:48;98451.34;;;10.87;100.00
12879;BME280;20617;49.476;10.986;2023-03-21T00:11:58;98441.19;;;10.81;100.00
12879;BME280;20617;49.476;10.986;2023-03-21T00:14:08;98444.09;;;10.73;100.00
12879;BME280;20617;49.476;10.986;2023-03-21T00:16:17;98444.00;;;10.76;100.00
12879;BME280;20617;49.476;10.986;2023-03-21T00:18:30;98431.88;;;10.75;100.00
12879;BME280;20617;49.476;10.986;2023-03-21T00:20:38;98436.81;;;10.81;100.00
12879;BME280;20617;49.476;10.986;2023-03-21T00:22:42;98432.59;;;10.79;100.00
12879;BME280;20617;49.476;10.986;2023-03-21T00:24:47;98437.56;;;10.85;100.00
12879;BME280;20617;49.476;10.986;2023-03-21T00:26:53;98444.13;;;10.94;100.00
12879;BME280;20617;49.476;10.986;2023-03-21T00:29:13;98439.69;;;10.97;100.00
12879;BME280;20617;49.476;10.986;2023-03-21T00:31:20;98440.50;;;10.98;100.00
12879;BME280;20617;49.476;10.986;2023-03-21T00:33:25;98444.75;;;11.00;100.00
12879;BME280;20617;49.476;10.986;2023-03-21T00:35:30;98436.09;;;11.00;100.00
12879;BME280;20617;49.476;10.986;2023-03-21T00:37:55;98431.03;;;10.97;100.00
12879;BME280;20617;49.476;10.986;2023-03-21T00:40:00;98435.19;;;11.01;100.00
12879;BME280;20617;49.476;10.986;2023-03-21T00:42:11;98432.81;;;10.95;100.00
12879;BME280;20617;49.476;10.986;2023-03-21T00:44:18;98422.00;;;10.83;100.00
12879;BME280;20617;49.476;10.986;2023-03-21T00:46:28;98429.97;;;10.79;100.00
12879;BME280;20617;49.476;10.986;2023-03-21T00:48:47;98426.78;;;10.72;100.00
12879;BME280;20617;49.476;10.986;2023-03-21T00:50:54;98420.59;;;10.75;100.00
12879;BME280;20617;49.476;10.986;2023-03-21T00:53:00;98417.97;;;10.76;100.00
12879;BME280;20617;49.476;10.986;2023-03-21T00:55:06;98412.06;;;10.71;100.00
12879;BME280;20617;49.476;10.986;2023-03-21T00:57:11;98404.53;;;10.65;100.00
12879;BME280;20617;49.476;10.986;2023-03-21T00:59:20;98410.59;;;10.64;100.00
12879;BME280;20617;49.476;10.986;2023-03-21T01:01:25;98405.84;;;10.53;100.00
12879;BME280;20617;49.476;10.986;2023-03-21T01:03:33;98407.69;;;10.50;100.00
12879;BME280;20617;49.476;10.986;2023-03-21T01:05:47;98409.78;;;10.41;100.00
12879;BME280;20617;49.476;10.986;2023-03-21T01:08:08;98396.94;;;10.37;100.00
12879;BME280;20617;49.476;10.986;2023-03-21T01:10:28;98396.38;;;10.29;100.00
12879;BME280;20617;49.476;10.986;2023-03-21T01:12:33;98396.38;;;10.29;100.00
12879;BME280;20617;49.476;10.986;2023-03-21T01:14:41;98402.25;;;10.34;100.00
12879;BME280;20617;49.476;10.986;2023-03-21T01:16:46;98393.63;;;10.33;100.00
12879;BME280;20617;49.476;10.986;2023-03-21T01:18:51;98388.34;;;10.35;100.00
12879;BME280;20617;49.476;10.986;2023-03-21T01:20:58;98396.66;;;10.45;100.00
12879;BME280;20617;49.476;10.986;2023-03-21T01:23:03;98399.06;;;10.49;100.00
12879;BME280;20617;49.476;10.986;2023-03-21T01:25:08;98391.00;;;10.55;100.00
12879;BME280;20617;49.476;10.986;2023-03-21T01:27:24;98399.59;;;10.57;100.00
12879;BME280;20617;49.476;10.986;2023-03-21T01:29:28;98396.03;;;10.60;100.00
12879;BME280;20617;49.476;10.986;2023-03-21T01:31:36;98395.97;;;10.61;100.00
12879;BME280;20617;49.476;10.986;2023-03-21T01:33:41;98395.84;;;10.64;100.00
12879;BME280;20617;49.476;10.986;2023-03-21T01:35:46;98399.22;;;10.67;100.00
12879;BME280;20617;49.476;10.986;2023-03-21T01:38:07;98387.72;;;10.72;100.00
12879;BME280;20617;49.476;10.986;2023-03-21T01:40:21;98383.34;;;10.73;100.00
12879;BME280;20617;49.476;10.986;2023-03-21T01:42:33;98387.59;;;10.75;100.00
12879;BME280;20617;49.476;10.986;2023-03-21T01:44:52;98380.63;;;10.76;100.00
12879;BME280;20617;49.476;10.986;2023-03-21T01:47:01;98384.94;;;10.77;100.00
12879;BME280;20617;49.476;10.986;2023-03-21T01:49:25;98387.44;;;10.80;100.00
12879;BME280;20617;49.476;10.986;2023-03-21T01:51:47;98382.13;;;10.81;100.00
12879;BME280;20617;49.476;10.986;2023-03-21T01:53:55;98379.47;;;10.83;100.00
12879;BME280;20617;49.476;10.986;2023-03-21T01:56:03;98380.31;;;10.83;100.00
12879;BME280;20617;49.476;10.986;2023-03-21T01:58:29;98379.47;;;10.83;100.00
12879;BME280;20617;49.476;10.986;2023-03-21T02:00:56;98369.88;;;10.85;100.00
12879;BME280;20617;49.476;10.986;2023-03-21T02:03:12;98375.84;;;10.87;100.00
12879;BME280;20617;49.476;10.986;2023-03-21T02:05:57;98373.31;;;10.85;100.00
12879;BME280;20617;49.476;10.986;2023-03-21T02:08:09;98379.41;;;10.84;100.00
12879;BME280;20617;49.476;10.986;2023-03-21T02:10:15;98368.34;;;10.79;100.00
12879;BME280;20617;49.476;10.986;2023-03-21T02:12:25;98364.25;;;10.74;100.00
12879;BME280;20617;49.476;10.986;2023-03-21T02:14:32;98366.78;;;10.75;100.00
12879;BME280;20617;49.476;10.986;2023-03-21T02:16:52;98370.16;;;10.77;100.00
12879;BME280;20617;49.476;10.986;2023-03-21T02:19:23;98365.94;;;10.75;100.00
12879;BME280;20617;49.476;10.986;2023-03-21T02:24:52;98362.13;;;10.61;100.00
12879;BME280;20617;49.476;10.986;2023-03-21T02:27:15;98367.53;;;10.57;100.00
12879;BME280;20617;49.476;10.986;2023-03-21T02:29:42;98362.44;;;10.54;100.00
12879;BME280;20617;49.476;10.986;2023-03-21T02:31:59;98365.22;;;10.49;100.00
12879;BME280;20617;49.476;10.986;2023-03-21T02:34:47;98366.25;;;10.45;100.00
12879;BME280;20617;49.476;10.986;2023-03-21T02:37:15;98373.28;;;10.43;100.00
12879;BME280;20617;49.476;10.986;2023-03-21T02:39:40;98370.66;;;10.43;100.00
12879;BME280;20617;49.476;10.986;2023-03-21T02:42:01;98366.31;;;10.43;100.00
12879;BME280;20617;49.476;10.986;2023-03-21T02:44:17;98367.91;;;10.48;100.00
12879;BME280;20617;49.476;10.986;2023-03-21T02:46:27;98367.78;;;10.51;100.00
12879;BME280;20617;49.476;10.986;2023-03-21T02:48:51;98363.41;;;10.51;100.00
12879;BME280;20617;49.476;10.986;2023-03-21T02:50:59;98361.59;;;10.53;100.00
12879;BME280;20617;49.476;10.986;2023-03-21T02:53:10;98369.22;;;10.58;100.00
12879;BME280;20617;49.476;10.986;2023-03-21T02:55:21;98371.88;;;10.56;100.00
12879;BME280;20617;49.476;10.986;2023-03-21T02:57:32;98364.63;;;10.42;100.00
12879;BME280;20617;49.476;10.986;2023-03-21T02:59:47;98364.91;;;10.35;100.00
12879;BME280;20617;49.476;10.986;2023-03-21T03:02:05;98362.50;;;10.30;100.00
12879;BME280;20617;49.476;10.986;2023-03-21T03:04:18;98354.72;;;10.30;100.00
12879;BME280;20617;49.476;10.986;2023-03-21T03:06:28;98359.97;;;10.29;100.00
12879;BME280;20617;49.476;10.986;2023-03-21T03:08:46;98355.13;;;10.18;100.00
12879;BME280;20617;49.476;10.986;2023-03-21T03:11:13;98357.69;;;10.19;100.00
12879;BME280;20617;49.476;10.986;2023-03-21T03:13:33;98350.47;;;10.28;100.00
12879;BME280;20617;49.476;10.986;2023-03-21T03:15:45;98351.88;;;10.36;100.00
12879;BME280;20617;49.476;10.986;2023-03-21T03:17:58;98345.56;;;10.42;100.00
12879;BME280;20617;49.476;10.986;2023-03-21T03:20:24;98354.03;;;10.47;100.00
12879;BME280;20617;49.476;10.986;2023-03-21T03:22:39;98346.88;;;10.52;100.00
12879;BME280;20617;49.476;10.986;2023-03-21T03:24:55;98347.53;;;10.57;100.00
12879;BME280;20617;49.476;10.986;2023-03-21T03:27:17;98349.09;;;10.61;100.00
12879;BME280;20617;49.476;10.986;2023-03-21T03:29:25;98344.56;;;10.67;100.00
12879;BME280;20617;49.476;10.986;2023-03-21T03:31:34;98343.59;;;10.69;100.00
12879;BME280;20617;49.476;10.986;2023-03-21T03:33:43;98353.81;;;10.74;100.00
12879;BME280;20617;49.476;10.986;2023-03-21T03:35:53;98347.75;;;10.73;100.00
12879;BME280;20617;49.476;10.986;2023-03-21T03:38:11;98348.63;;;10.74;100.00
12879;BME280;20617;49.476;10.986;2023-03-21T03:40:23;98352.91;;;10.75;100.00
12879;BME280;20617;49.476;10.986;2023-03-21T03:42:41;98347.56;;;10.78;100.00
12879;BME280;20617;49.476;10.986;2023-03-21T03:44:57;98334.63;;;10.76;100.00
12879;BME280;20617;49.476;10.986;2023-03-21T03:47:06;98340.69;;;10.77;100.00
12879;BME280;20617;49.476;10.986;2023-03-21T03:49:29;98339.75;;;10.78;100.00
12879;BME280;20617;49.476;10.986;2023-03-21T03:51:41;98340.69;;;10.77;100.00
12879;BME280;20617;49.476;10.986;2023-03-21T03:54:08;98338.97;;;10.76;100.00
12879;BME280;20617;49.476;10.986;2023-03-21T03:56:19;98337.41;;;10.72;100.00
12879;BME280;20617;49.476;10.986;2023-03-21T03:58:24;98337.59;;;10.67;100.00
12879;BME280;20617;49.476;10.986;2023-03-21T04:00:46;98335.25;;;10.61;100.00
12879;BME280;20617;49.476;10.986;2023-03-21T04:02:51;98340.78;;;10.53;100.00
12879;BME280;20617;49.476;10.986;2023-03-21T04:05:00;98339.19;;;10.49;100.00
12879;BME280;20617;49.476;10.986;2023-03-21T04:07:05;98333.22;;;10.47;100.00
12879;BME280;20617;49.476;10.986;2023-03-21T04:09:12;98332.34;;;10.47;100.00
12879;BME280;20617;49.476;10.986;2023-03-21T04:11:28;98330.72;;;10.44;100.00
12879;BME280;20617;49.476;10.986;2023-03-21T04:13:34;98334.25;;;10.43;100.00
12879;BME280;20617;49.476;10.986;2023-03-21T04:15:43;98336.91;;;10.41;100.00
12879;BME280;20617;49.476;10.986;2023-03-21T04:17:50;98333.66;;;10.36;100.00
12879;BME280;20617;49.476;10.986;2023-03-21T04:19:55;98343.22;;;10.36;100.00
12879;BME280;20617;49.476;10.986;2023-03-21T04:22:14;98332.13;;;10.31;100.00
12879;BME280;20617;49.476;10.986;2023-03-21T04:24:20;98325.28;;;10.28;100.00
12879;BME280;20617;49.476;10.986;2023-03-21T04:26:28;98334.94;;;10.25;100.00
12879;BME280;20617;49.476;10.986;2023-03-21T04:28:55;98333.44;;;10.19;100.00
12879;BME280;20617;49.476;10.986;2023-03-21T04:31:20;98332.63;;;10.17;100.00
12879;BME280;20617;49.476;10.986;2023-03-21T04:33:36;98334.44;;;10.15;100.00
12879;BME280;20617;49.476;10.986;2023-03-21T04:35:40;98334.44;;;10.15;100.00
12879;BME280;20617;49.476;10.986;2023-03-21T04:37:48;98339.66;;;10.15;100.00
12879;BME280;20617;49.476;10.986;2023-03-21T04:39:53;98338.88;;;10.13;100.00
12879;BME280;20617;49.476;10.986;2023-03-21T04:42:00;98345.22;;;10.06;100.00
12879;BME280;20617;49.476;10.986;2023-03-21T04:44:06;98339.28;;;10.02;100.00
12879;BME280;20617;49.476;10.986;2023-03-21T04:46:12;98340.13;;;10.03;100.00
12879;BME280;20617;49.476;10.986;2023-03-21T04:48:17;98342.81;;;10.01;100.00
12879;BME280;20617;49.476;10.986;2023-03-21T04:50:25;98344.72;;;9.96;100.00
12879;BME280;20617;49.476;10.986;2023-03-21T04:52:30;98344.72;;;9.96;100.00
12879;BME280;20617;49.476;10.986;2023-03-21T04:54:36;98342.03;;;9.97;100.00
12879;BME280;20617;49.476;10.986;2023-03-21T04:56:41;98336.84;;;9.97;100.00
12879;BME280;20617;49.476;10.986;2023-03-21T04:58:49;98340.19;;;10.01;100.00
12879;BME280;20617;49.476;10.986;2023-03-21T05:00:54;98336.69;;;10.02;100.00
12879;BME280;20617;49.476;10.986;2023-03-21T05:03:00;98335.72;;;10.05;100.00
12879;BME280;20617;49.476;10.986;2023-03-21T05:05:06;98331.38;;;10.05;100.00
12879;BME280;20617;49.476;10.986;2023-03-21T05:07:13;98326.97;;;10.07;100.00
12879;BME280;20617;49.476;10.986;2023-03-21T05:09:18;98329.72;;;10.03;100.00
12879;BME280;20617;49.476;10.986;2023-03-21T05:11:23;98327.06;;;10.04;100.00
12879;BME280;20617;49.476;10.986;2023-03-21T05:13:28;98333.03;;;10.06;100.00
12879;BME280;20617;49.476;10.986;2023-03-21T05:15:35;98339.97;;;10.07;100.00
12879;BME280;20617;49.476;10.986;2023-03-21T05:17:40;98339.03;;;10.08;100.00
12879;BME280;20617;49.476;10.986;2023-03-21T05:19:46;98337.47;;;10.04;100.00
12879;BME280;20617;49.476;10.986;2023-03-21T05:21:51;98352.28;;;10.02;100.00
12879;BME280;20617;49.476;10.986;2023-03-21T05:24:00;98345.41;;;10.01;100.00
12879;BME280;20617;49.476;10.986;2023-03-21T05:26:06;98353.44;;;9.95;100.00
12879;BME280;20617;49.476;10.986;2023-03-21T05:28:18;98349.13;;;9.94;100.00
12879;BME280;20617;49.476;10.986;2023-03-21T05:30:23;98348.38;;;9.92;100.00
12879;BME280;20617;49.476;10.986;2023-03-21T05:32:35;98345.56;;;9.96;100.00
12879;BME280;20617;49.476;10.986;2023-03-21T05:34:43;98349.81;;;9.99;100.00
12879;BME280;20617;49.476;10.986;2023-03-21T05:36:48;98348.13;;;9.98;100.00
12879;BME280;20617;49.476;10.986;2023-03-21T05:38:54;98353.09;;;10.04;100.00
12879;BME280;20617;49.476;10.986;2023-03-21T05:40:59;98347.16;;;10.01;100.00
12879;BME280;20617;49.476;10.986;2023-03-21T05:43:06;98354.03;;;10.02;100.00
12879;BME280;20617;49.476;10.986;2023-03-21T05:45:11;98351.25;;;10.06;100.00
12879;BME280;20617;49.476;10.986;2023-03-21T05:47:16;98351.25;;;10.06;100.00
12879;BME280;20617;49.476;10.986;2023-03-21T05:49:24;98349.53;;;10.07;100.00
12879;BME280;20617;49.476;10.986;2023-03-21T05:51:33;98349.31;;;10.11;100.00
12879;BME280;20617;49.476;10.986;2023-03-21T05:53:37;98358.78;;;10.14;100.00
12879;BME280;20617;49.476;10.986;2023-03-21T05:55:42;98358.72;;;10.15;100.00
12879;BME280;20617;49.476;10.986;2023-03-21T05:58:03;98358.09;;;10.09;100.00
12879;BME280;20617;49.476;10.986;2023-03-21T06:00:08;98364.38;;;10.03;100.00
12879;BME280;20617;49.476;10.986;2023-03-21T06:02:16;98356.56;;;10.03;100.00
12879;BME280;20617;49.476;10.986;2023-03-21T06:04:25;98362.34;;;10.11;100.00
12879;BME280;20617;49.476;10.986;2023-03-21T06:06:30;98369.28;;;10.11;100.00
12879;BME280;20617;49.476;10.986;2023-03-21T06:08:36;98363.94;;;10.15;100.00
12879;BME280;20617;49.476;10.986;2023-03-21T06:10:41;98361.38;;;10.14;100.00
12879;BME280;20617;49.476;10.986;2023-03-21T06:12:46;98360.25;;;10.21;100.00
12879;BME280;20617;49.476;10.986;2023-03-21T06:15:03;98359.16;;;10.27;100.00
12879;BME280;20617;49.476;10.986;2023-03-21T06:17:44;98356.28;;;10.34;100.00
12879;BME280;20617;49.476;10.986;2023-03-21T06:19:52;98352.56;;;10.40;100.00
12879;BME280;20617;49.476;10.986;2023-03-21T06:22:06;98354.13;;;10.44;100.00
12879;BME280;20617;49.476;10.986;2023-03-21T06:24:14;98354.75;;;10.51;100.00
12879;BME280;20617;49.476;10.986;2023-03-21T06:26:21;98357.25;;;10.54;100.00
12879;BME280;20617;49.476;10.986;2023-03-21T06:28:27;98362.19;;;10.60;100.00
12879;BME280;20617;49.476;10.986;2023-03-21T06:30:33;98365.38;;;10.67;100.00
12879;BME280;20617;49.476;10.986;2023-03-21T06:32:45;98351.28;;;10.72;100.00
12879;BME280;20617;49.476;10.986;2023-03-21T06:34:54;98356.34;;;10.75;100.00
12879;BME280;20617;49.476;10.986;2023-03-21T06:36:59;98351.84;;;10.79;100.00
12879;BME280;20617;49.476;10.986;2023-03-21T06:39:07;98354.88;;;10.90;100.00
12879;BME280;20617;49.476;10.986;2023-03-21T06:41:14;98355.47;;;10.97;100.00
12879;BME280;20617;49.476;10.986;2023-03-21T06:43:29;98352.66;;;11.01;100.00
12879;BME280;20617;49.476;10.986;2023-03-21T06:45:37;98351.56;;;11.07;100.00
12879;BME280;20617;49.476;10.986;2023-03-21T06:47:44;98345.09;;;11.16;100.00
12879;BME280;20617;49.476;10.986;2023-03-21T06:50:04;98350.19;;;11.19;100.00
12879;BME280;20617;49.476;10.986;2023-03-21T06:52:15;98353.59;;;11.21;100.00
12879;BME280;20617;49.476;10.986;2023-03-21T06:54:20;98350.00;;;11.23;100.00
12879;BME280;20617;49.476;10.986;2023-03-21T06:56:31;98350.75;;;11.25;100.00
12879;BME280;20617;49.476;10.986;2023-03-21T06:58:37;98343.53;;;11.32;100.00
12879;BME280;20617;49.476;10.986;2023-03-21T07:00:49;98347.41;;;11.42;100.00
12879;BME280;20617;49.476;10.986;2023-03-21T07:02:54;98346.31;;;11.48;100.00
12879;BME280;20617;49.476;10.986;2023-03-21T07:05:00;98347.66;;;11.56;100.00
12879;BME280;20617;49.476;10.986;2023-03-21T07:07:07;98346.63;;;11.61;100.00
12879;BME280;20617;49.476;10.986;2023-03-21T07:09:12;98351.63;;;11.65;100.00
12879;BME280;20617;49.476;10.986;2023-03-21T07:11:19;98349.38;;;11.76;100.00
12879;BME280;20617;49.476;10.986;2023-03-21T07:13:23;98344.72;;;11.83;100.00
12879;BME280;20617;49.476;10.986;2023-03-21T07:15:36;98344.56;;;11.88;100.00
12879;BME280;20617;49.476;10.986;2023-03-21T07:17:42;98346.19;;;11.90;100.00
12879;BME280;20617;49.476;10.986;2023-03-21T07:19:47;98340.81;;;11.93;100.00
12879;BME280;20617;49.476;10.986;2023-03-21T07:21:53;98345.19;;;11.93;100.00
12879;BME280;20617;49.476;10.986;2023-03-21T07:24:00;98342.63;;;11.91;100.00
12879;BME280;20617;49.476;10.986;2023-03-21T07:26:06;98339.44;;;11.85;100.00
12879;BME280;20617;49.476;10.986;2023-03-21T07:28:11;98355.97;;;11.85;100.00
12879;BME280;20617;49.476;10.986;2023-03-21T07:30:17;98349.94;;;11.83;100.00
12879;BME280;20617;49.476;10.986;2023-03-21T07:32:22;98349.38;;;11.76;100.00
12879;BME280;20617;49.476;10.986;2023-03-21T07:34:31;98353.88;;;11.73;100.00
12879;BME280;20617;49.476;10.986;2023-03-21T07:36:37;98358.59;;;11.65;100.00
12879;BME280;20617;49.476;10.986;2023-03-21T07:38:43;98362.28;;;11.61;100.00
12879;BME280;20617;49.476;10.986;2023-03-21T07:40:57;98359.72;;;11.59;100.00
12879;BME280;20617;49.476;10.986;2023-03-21T07:43:06;98357.16;;;11.57;100.00
12879;BME280;20617;49.476;10.986;2023-03-21T07:45:16;98353.19;;;11.49;100.00
12879;BME280;20617;49.476;10.986;2023-03-21T07:47:22;98359.19;;;11.51;100.00
12879;BME280;20617;49.476;10.986;2023-03-21T07:49:27;98354.84;;;11.51;100.00
12879;BME280;20617;49.476;10.986;2023-03-21T07:51:32;98351.25;;;11.54;100.00
12879;BME280;20617;49.476;10.986;2023-03-21T07:53:38;98351.91;;;11.59;100.00
12879;BME280;20617;49.476;10.986;2023-03-21T07:55:48;98348.22;;;11.63;100.00
12879;BME280;20617;49.476;10.986;2023-03-21T07:57:56;98351.56;;;11.67;100.00
12879;BME280;20617;49.476;10.986;2023-03-21T08:00:01;98348.88;;;11.68;100.00
12879;BME280;20617;49.476;10.986;2023-03-21T08:02:14;98343.22;;;11.77;100.00
12879;BME280;20617;49.476;10.986;2023-03-21T08:04:19;98348.16;;;11.84;100.00
12879;BME280;20617;49.476;10.986;2023-03-21T08:06:26;98350.59;;;11.88;100.00
12879;BME280;20617;49.476;10.986;2023-03-21T08:08:33;98345.81;;;11.98;100.00
12879;BME280;20617;49.476;10.986;2023-03-21T08:10:38;98349.41;;;11.95;100.00
12879;BME280;20617;49.476;10.986;2023-03-21T08:12:43;98347.13;;;12.07;100.00
12879;BME280;20617;49.476;10.986;2023-03-21T08:14:50;98345.50;;;12.23;100.00
12879;BME280;20617;49.476;10.986;2023-03-21T08:16:55;98344.59;;;12.24;100.00
12879;BME280;20617;49.476;10.986;2023-03-21T08:19:00;98349.25;;;12.17;100.00
12879;BME280;20617;49.476;10.986;2023-03-21T08:21:06;98347.28;;;12.22;100.00
12879;BME280;20617;49.476;10.986;2023-03-21T08:23:11;98346.91;;;12.30;100.00
12879;BME280;20617;49.476;10.986;2023-03-21T08:25:21;98354.72;;;12.49;100.00
12879;BME280;20617;49.476;10.986;2023-03-21T08:27:26;98346.75;;;12.87;100.00
12879;BME280;20617;49.476;10.986;2023-03-21T08:29:31;98339.06;;;13.36;100.00
12879;BME280;20617;49.476;10.986;2023-03-21T08:31:43;98330.69;;;13.78;100.00
12879;BME280;20617;49.476;10.986;2023-03-21T08:33:48;98335.03;;;13.95;100.00
12879;BME280;20617;49.476;10.986;2023-03-21T08:35:58;98327.19;;;14.11;100.00
12879;BME280;20617;49.476;10.986;2023-03-21T08:38:03;98325.75;;;14.37;100.00
12879;BME280;20617;49.476;10.986;2023-03-21T08:40:11;98325.66;;;14.55;100.00
12879;BME280;20617;49.476;10.986;2023-03-21T08:42:17;98323.88;;;14.55;100.00
12879;BME280;20617;49.476;10.986;2023-03-21T08:44:22;98319.38;;;14.57;100.00
12879;BME280;20617;49.476;10.986;2023-03-21T08:46:27;98318.84;;;14.50;100.00
12879;BME280;20617;49.476;10.986;2023-03-21T08:48:35;98323.19;;;14.36;100.00
12879;BME280;20617;49.476;10.986;2023-03-21T08:50:40;98319.59;;;14.22;100.00
12879;BME280;20617;49.476;10.986;2023-03-21T08:52:46;98322.69;;;14.13;100.00
12879;BME280;20617;49.476;10.986;2023-03-21T08:54:51;98320.59;;;14.04;100.00
12879;BME280;20617;49.476;10.986;2023-03-21T08:56:56;98323.72;;;13.95;100.00
12879;BME280;20617;49.476;10.986;2023-03-21T08:59:01;98316.28;;;13.87;100.00
12879;BME280;20617;49.476;10.986;2023-03-21T09:01:06;98321.91;;;13.64;100.00
12879;BME280;20617;49.476;10.986;2023-03-21T09:03:16;98317.50;;;13.48;100.00
12879;BME280;20617;49.476;10.986;2023-03-21T09:05:24;98319.63;;;13.57;100.00
12879;BME280;20617;49.476;10.986;2023-03-21T09:07:29;98320.13;;;13.64;100.00
12879;BME280;20617;49.476;10.986;2023-03-21T09:09:34;98319.72;;;13.72;100.00
12879;BME280;20617;49.476;10.986;2023-03-21T09:11:39;98316.50;;;13.67;100.00
12879;BME280;20617;49.476;10.986;2023-03-21T09:13:44;98313.47;;;13.58;100.00
12879;BME280;20617;49.476;10.986;2023-03-21T09:15:49;98313.03;;;13.50;100.00
12879;BME280;20617;49.476;10.986;2023-03-21T09:17:55;98314.09;;;13.30;100.00
12879;BME280;20617;49.476;10.986;2023-03-21T09:20:15;98311.91;;;13.39;100.00
12879;BME280;20617;49.476;10.986;2023-03-21T09:22:26;98312.25;;;13.48;100.00
12879;BME280;20617;49.476;10.986;2023-03-21T09:24:31;98306.91;;;13.67;100.00
12879;BME280;20617;49.476;10.986;2023-03-21T09:26:36;98302.09;;;13.75;100.00
12879;BME280;20617;49.476;10.986;2023-03-21T09:28:42;98292.31;;;13.95;100.00
12879;BME280;20617;49.476;10.986;2023-03-21T09:30:48;98302.75;;;14.11;100.00
12879;BME280;20617;49.476;10.986;2023-03-21T09:32:53;98303.53;;;14.13;100.00
12879;BME280;20617;49.476;10.986;2023-03-21T09:34:58;98296.75;;;14.24;100.00
12879;BME280;20617;49.476;10.986;2023-03-21T09:37:02;98301.25;;;14.22;100.00
12879;BME280;20617;49.476;10.986;2023-03-21T09:39:16;98300.91;;;14.13;100.00
12879;BME280;20617;49.476;10.986;2023-03-21T09:41:33;98291.56;;;14.09;100.00
12879;BME280;20617;49.476;10.986;2023-03-21T09:43:48;98296.78;;;13.93;100.00
12879;BME280;20617;49.476;10.986;2023-03-21T09:46:02;98289.88;;;13.92;100.00
12879;BME280;20617;49.476;10.986;2023-03-21T09:48:16;98292.81;;;13.86;100.00
12879;BME280;20617;49.476;10.986;2023-03-21T09:50:33;98287.00;;;13.96;100.00
12879;BME280;20617;49.476;10.986;2023-03-21T09:52:42;98293.00;;;14.14;100.00
12879;BME280;20617;49.476;10.986;2023-03-21T09:54:54;98293.22;;;14.25;100.00
12879;BME280;20617;49.476;10.986;2023-03-21T09:57:08;98287.72;;;14.30;100.00
12879;BME280;20617;49.476;10.986;2023-03-21T09:59:22;98289.00;;;14.23;100.00
12879;BME280;20617;49.476;10.986;2023-03-21T10:01:34;98283.09;;;14.03;99.39
12879;BME280;20617;49.476;10.986;2023-03-21T10:03:42;98284.69;;;13.90;99.01
12879;BME280;20617;49.476;10.986;2023-03-21T10:05:49;98284.66;;;13.76;99.55
12879;BME280;20617;49.476;10.986;2023-03-21T10:08:01;98281.94;;;13.93;99.20
12879;BME280;20617;49.476;10.986;2023-03-21T10:10:14;98270.44;;;13.96;100.00
12879;BME280;20617;49.476;10.986;2023-03-21T10:12:22;98268.84;;;13.93;100.00
12879;BME280;20617;49.476;10.986;2023-03-21T10:14:34;98262.31;;;14.16;100.00
12879;BME280;20617;49.476;10.986;2023-03-21T10:16:42;98261.03;;;14.23;100.00
12879;BME280;20617;49.476;10.986;2023-03-21T10:18:48;98269.72;;;14.40;100.00
12879;BME280;20617;49.476;10.986;2023-03-21T10:20:54;98261.75;;;14.57;100.00
12879;BME280;20617;49.476;10.986;2023-03-21T10:23:03;98259.84;;;14.75;100.00
12879;BME280;20617;49.476;10.986;2023-03-21T10:25:16;98254.97;;;14.83;100.00
12879;BME280;20617;49.476;10.986;2023-03-21T10:27:22;98262.63;;;14.86;100.00
12879;BME280;20617;49.476;10.986;2023-03-21T10:29:30;98248.16;;;14.95;99.28
12879;BME280;20617;49.476;10.986;2023-03-21T10:31:39;98242.75;;;14.98;97.31
12879;BME280;20617;49.476;10.986;2023-03-21T10:33:47;98257.06;;;14.92;98.47
12879;BME280;20617;49.476;10.986;2023-03-21T10:35:58;98249.09;;;14.94;98.22
12879;BME280;20617;49.476;10.986;2023-03-21T10:38:06;98245.06;;;15.03;95.02
12879;BME280;20617;49.476;10.986;2023-03-21T10:40:18;98237.84;;;15.06;94.90
12879;BME280;20617;49.476;10.986;2023-03-21T10:42:25;98229.28;;;15.04;95.15
12879;BME280;20617;49.476;10.986;2023-03-21T10:44:31;98237.22;;;15.03;94.83
12879;BME280;20617;49.476;10.986;2023-03-21T10:46:37;98234.78;;;15.14;93.71
12879;BME280;20617;49.476;10.986;2023-03-21T10:48:43;98238.53;;;15.10;95.44
12879;BME280;20617;49.476;10.986;2023-03-21T10:50:51;98229.16;;;15.20;96.56
12879;BME280;20617;49.476;10.986;2023-03-21T10:52:58;98228.31;;;15.34;96.25
12879;BME280;20617;49.476;10.986;2023-03-21T10:55:11;98231.78;;;15.49;96.44
12879;BME280;20617;49.476;10.986;2023-03-21T10:57:25;98226.50;;;15.63;95.45
12879;BME280;20617;49.476;10.986;2023-03-21T10:59:37;98229.97;;;15.63;94.06
12879;BME280;20617;49.476;10.986;2023-03-21T11:01:47;98223.75;;;15.65;94.24
12879;BME280;20617;49.476;10.986;2023-03-21T11:03:56;98218.72;;;15.47;95.42
12879;BME280;20617;49.476;10.986;2023-03-21T11:06:05;98222.44;;;15.30;96.87
12879;BME280;20617;49.476;10.986;2023-03-21T11:08:13;98223.06;;;15.20;97.04
12879;BME280;20617;49.476;10.986;2023-03-21T11:10:27;98218.03;;;15.31;96.12
12879;BME280;20617;49.476;10.986;2023-03-21T11:12:37;98219.22;;;15.39;96.18
12879;BME280;20617;49.476;10.986;2023-03-21T11:14:43;98209.78;;;15.37;96.33